sensor_id;sensor_type;location;lat;lon;timestamp;P1;durP1;ratioP1;P2;durP2;ratioP2
83094;SDS011;72967;43.674;6.976;2024-03-23T00:53:09;12.50;;;7.82;;
83094;SDS011;72967;43.674;6.976;2024-03-23T00:55:35;12.50;;;8.75;;
83094;SDS011;72967;43.674;6.976;2024-03-23T00:58:01;11.43;;;7.93;;
83094;SDS011;72967;43.674;6.976;2024-03-23T01:00:26;11.52;;;7.93;;
83094;SDS011;72967;43.674;6.976;2024-03-23T01:02:51;10.57;;;7.47;;
83094;SDS011;72967;43.674;6.976;2024-03-23T01:05:17;13.02;;;8.73;;
83094;SDS011;72967;43.674;6.976;2024-03-23T01:07:42;13.10;;;8.07;;
83094;SDS011;72967;43.674;6.976;2024-03-23T01:10:08;10.32;;;8.13;;
83094;SDS011;72967;43.674;6.976;2024-03-23T01:12:33;11.38;;;7.90;;
83094;SDS011;72967;43.674;6.976;2024-03-23T01:14:59;9.20;;;6.65;;
83094;SDS011;72967;43.674;6.976;2024-03-23T01:17:24;9.27;;;6.72;;
83094;SDS011;72967;43.674;6.976;2024-03-23T01:19:50;12.18;;;7.07;;
83094;SDS011;72967;43.674;6.976;2024-03-23T01:22:15;9.77;;;7.03;;
83094;SDS011;72967;43.674;6.976;2024-03-23T01:24:40;7.15;;;5.60;;
83094;SDS011;72967;43.674;6.976;2024-03-23T01:27:06;7.88;;;5.82;;
83094;SDS011;72967;43.674;6.976;2024-03-23T01:29:31;7.90;;;5.72;;
83094;SDS011;72967;43.674;6.976;2024-03-23T01:31:57;9.13;;;6.18;;
83094;SDS011;72967;43.674;6.976;2024-03-23T01:34:22;9.07;;;6.55;;
83094;SDS011;72967;43.674;6.976;2024-03-23T01:36:49;7.07;;;6.38;;
83094;SDS011;72967;43.674;6.976;2024-03-23T01:39:15;9.70;;;5.95;;
83094;SDS011;72967;43.674;6.976;2024-03-23T01:41:40;10.15;;;6.93;;
83094;SDS011;72967;43.674;6.976;2024-03-23T01:44:08;9.25;;;6.25;;
83094;SDS011;72967;43.674;6.976;2024-03-23T01:46:34;8.00;;;6.22;;
83094;SDS011;72967;43.674;6.976;2024-03-23T01:49:01;10.05;;;6.32;;
83094;SDS011;72967;43.674;6.976;2024-03-23T01:51:27;8.63;;;6.03;;
83094;SDS011;72967;43.674;6.976;2024-03-23T01:53:53;7.85;;;5.88;;
83094;SDS011;72967;43.674;6.976;2024-03-23T01:56:20;8.38;;;5.65;;
83094;SDS011;72967;43.674;6.976;2024-03-23T01:58:45;9.35;;;6.10;;
83094;SDS011;72967;43.674;6.976;2024-03-23T02:01:11;7.85;;;6.43;;
83094;SDS011;72967;43.674;6.976;2024-03-23T02:03:37;7.85;;;5.30;;
83094;SDS011;72967;43.674;6.976;2024-03-23T02:06:02;8.25;;;5.95;;
83094;SDS011;72967;43.674;6.976;2024-03-23T02:08:28;11.35;;;5.97;;
83094;SDS011;72967;43.674;6.976;2024-03-23T02:10:55;9.23;;;5.88;;
83094;SDS011;72967;43.674;6.976;2024-03-23T02:13:20;7.95;;;5.88;;
83094;SDS011;72967;43.674;6.976;2024-03-23T02:15:46;10.32;;;7.47;;
83094;SDS011;72967;43.674;6.976;2024-03-23T02:18:11;10.13;;;6.60;;
83094;SDS011;72967;43.674;6.976;2024-03-23T02:20:37;11.15;;;6.93;;
83094;SDS011;72967;43.674;6.976;2024-03-23T02:23:03;10.40;;;5.85;;
83094;SDS011;72967;43.674;6.976;2024-03-23T02:25:31;11.20;;;7.35;;
83094;SDS011;72967;43.674;6.976;2024-03-23T02:27:57;9.57;;;6.53;;
83094;SDS011;72967;43.674;6.976;2024-03-23T02:30:24;9.25;;;7.13;;
83094;SDS011;72967;43.674;6.976;2024-03-23T02:32:50;8.13;;;6.07;;
83094;SDS011;72967;43.674;6.976;2024-03-23T02:35:15;7.40;;;5.53;;
83094;SDS011;72967;43.674;6.976;2024-03-23T02:37:41;7.60;;;5.63;;
83094;SDS011;72967;43.674;6.976;2024-03-23T02:40:06;9.02;;;7.07;;
83094;SDS011;72967;43.674;6.976;2024-03-23T02:42:32;10.25;;;7.38;;
83094;SDS011;72967;43.674;6.976;2024-03-23T02:44:58;11.45;;;7.72;;
83094;SDS011;72967;43.674;6.976;2024-03-23T02:47:23;12.48;;;7.70;;
83094;SDS011;72967;43.674;6.976;2024-03-23T02:49:49;11.40;;;7.40;;
83094;SDS011;72967;43.674;6.976;2024-03-23T02:52:14;9.98;;;6.55;;
83094;SDS011;72967;43.674;6.976;2024-03-23T02:54:40;12.80;;;7.65;;
83094;SDS011;72967;43.674;6.976;2024-03-23T02:57:07;9.65;;;7.72;;
83094;SDS011;72967;43.674;6.976;2024-03-23T02:59:32;11.73;;;8.57;;
83094;SDS011;72967;43.674;6.976;2024-03-23T03:01:58;12.45;;;9.05;;
83094;SDS011;72967;43.674;6.976;2024-03-23T03:04:25;12.38;;;7.65;;
83094;SDS011;72967;43.674;6.976;2024-03-23T03:06:50;13.57;;;8.07;;
83094;SDS011;72967;43.674;6.976;2024-03-23T03:09:15;11.00;;;7.32;;
83094;SDS011;72967;43.674;6.976;2024-03-23T03:11:41;12.40;;;8.68;;
83094;SDS011;72967;43.674;6.976;2024-03-23T03:14:06;15.10;;;9.27;;
83094;SDS011;72967;43.674;6.976;2024-03-23T03:16:33;10.48;;;7.88;;
83094;SDS011;72967;43.674;6.976;2024-03-23T03:18:59;13.27;;;7.72;;
83094;SDS011;72967;43.674;6.976;2024-03-23T03:21:24;11.88;;;8.18;;
83094;SDS011;72967;43.674;6.976;2024-03-23T03:23:50;12.75;;;8.32;;
83094;SDS011;72967;43.674;6.976;2024-03-23T03:26:16;13.13;;;9.20;;
83094;SDS011;72967;43.674;6.976;2024-03-23T03:28:42;13.98;;;9.40;;
83094;SDS011;72967;43.674;6.976;2024-03-23T03:31:13;12.23;;;9.13;;
83094;SDS011;72967;43.674;6.976;2024-03-23T03:33:39;11.52;;;7.70;;
83094;SDS011;72967;43.674;6.976;2024-03-23T03:36:04;12.38;;;9.10;;
83094;SDS011;72967;43.674;6.976;2024-03-23T03:38:30;13.13;;;8.40;;
83094;SDS011;72967;43.674;6.976;2024-03-23T03:40:55;13.60;;;9.57;;
83094;SDS011;72967;43.674;6.976;2024-03-23T03:43:21;12.18;;;8.75;;
83094;SDS011;72967;43.674;6.976;2024-03-23T03:45:52;12.32;;;7.63;;
83094;SDS011;72967;43.674;6.976;2024-03-23T03:48:18;12.02;;;8.10;;
83094;SDS011;72967;43.674;6.976;2024-03-23T03:50:44;12.98;;;7.97;;
83094;SDS011;72967;43.674;6.976;2024-03-23T03:53:09;12.65;;;7.85;;
83094;SDS011;72967;43.674;6.976;2024-03-23T03:55:35;9.73;;;6.78;;
83094;SDS011;72967;43.674;6.976;2024-03-23T03:58:00;13.90;;;7.90;;
83094;SDS011;72967;43.674;6.976;2024-03-23T04:00:26;8.52;;;6.70;;
83094;SDS011;72967;43.674;6.976;2024-03-23T04:02:51;10.30;;;7.13;;
83094;SDS011;72967;43.674;6.976;2024-03-23T04:05:16;11.00;;;8.32;;
83094;SDS011;72967;43.674;6.976;2024-03-23T04:07:42;10.15;;;7.22;;
83094;SDS011;72967;43.674;6.976;2024-03-23T04:10:07;14.38;;;8.48;;
83094;SDS011;72967;43.674;6.976;2024-03-23T04:12:33;10.80;;;6.97;;
83094;SDS011;72967;43.674;6.976;2024-03-23T04:14:59;10.55;;;8.48;;
83094;SDS011;72967;43.674;6.976;2024-03-23T04:17:25;12.10;;;7.72;;
83094;SDS011;72967;43.674;6.976;2024-03-23T04:19:51;13.23;;;8.38;;
83094;SDS011;72967;43.674;6.976;2024-03-23T04:22:17;12.70;;;8.85;;
83094;SDS011;72967;43.674;6.976;2024-03-23T04:24:43;12.52;;;8.18;;
83094;SDS011;72967;43.674;6.976;2024-03-23T04:27:08;13.13;;;8.88;;
83094;SDS011;72967;43.674;6.976;2024-03-23T04:29:33;11.27;;;7.13;;
83094;SDS011;72967;43.674;6.976;2024-03-23T04:31:59;11.68;;;8.10;;
83094;SDS011;72967;43.674;6.976;2024-03-23T04:34:25;10.65;;;7.65;;
83094;SDS011;72967;43.674;6.976;2024-03-23T04:36:51;11.50;;;6.78;;
83094;SDS011;72967;43.674;6.976;2024-03-23T04:39:16;9.18;;;6.45;;
83094;SDS011;72967;43.674;6.976;2024-03-23T04:41:42;8.63;;;5.90;;
83094;SDS011;72967;43.674;6.976;2024-03-23T04:44:07;10.80;;;6.50;;
83094;SDS011;72967;43.674;6.976;2024-03-23T04:46:33;11.27;;;6.43;;
83094;SDS011;72967;43.674;6.976;2024-03-23T04:48:58;12.55;;;7.18;;
83094;SDS011;72967;43.674;6.976;2024-03-23T04:51:24;8.98;;;6.32;;
83094;SDS011;72967;43.674;6.976;2024-03-23T04:53:49;10.25;;;7.05;;
83094;SDS011;72967;43.674;6.976;2024-03-23T04:56:15;9.20;;;7.05;;
83094;SDS011;72967;43.674;6.976;2024-03-23T04:58:42;8.80;;;6.63;;
83094;SDS011;72967;43.674;6.976;2024-03-23T05:01:07;11.10;;;6.60;;
83094;SDS011;72967;43.674;6.976;2024-03-23T05:03:33;12.52;;;6.60;;
83094;SDS011;72967;43.674;6.976;2024-03-23T05:05:58;11.10;;;7.22;;
83094;SDS011;72967;43.674;6.976;2024-03-23T05:08:24;10.52;;;6.07;;
83094;SDS011;72967;43.674;6.976;2024-03-23T05:10:49;9.68;;;6.63;;
83094;SDS011;72967;43.674;6.976;2024-03-23T05:13:14;10.00;;;6.70;;
83094;SDS011;72967;43.674;6.976;2024-03-23T05:15:40;10.75;;;7.55;;
83094;SDS011;72967;43.674;6.976;2024-03-23T05:18:05;8.55;;;6.13;;
83094;SDS011;72967;43.674;6.976;2024-03-23T05:20:31;9.32;;;7.40;;
83094;SDS011;72967;43.674;6.976;2024-03-23T05:22:57;9.25;;;7.22;;
83094;SDS011;72967;43.674;6.976;2024-03-23T05:25:22;9.13;;;6.90;;
83094;SDS011;72967;43.674;6.976;2024-03-23T05:27:48;13.02;;;6.60;;
83094;SDS011;72967;43.674;6.976;2024-03-23T05:30:14;13.07;;;6.45;;
83094;SDS011;72967;43.674;6.976;2024-03-23T05:32:39;10.70;;;6.53;;
83094;SDS011;72967;43.674;6.976;2024-03-23T05:35:07;8.90;;;6.60;;
83094;SDS011;72967;43.674;6.976;2024-03-23T05:37:33;9.05;;;6.95;;
83094;SDS011;72967;43.674;6.976;2024-03-23T05:40:02;8.48;;;6.03;;
83094;SDS011;72967;43.674;6.976;2024-03-23T05:42:28;9.80;;;6.03;;
83094;SDS011;72967;43.674;6.976;2024-03-23T05:44:54;8.30;;;5.90;;
83094;SDS011;72967;43.674;6.976;2024-03-23T05:47:19;8.18;;;5.95;;
83094;SDS011;72967;43.674;6.976;2024-03-23T05:49:45;10.25;;;5.53;;
83094;SDS011;72967;43.674;6.976;2024-03-23T05:52:11;6.95;;;5.32;;
83094;SDS011;72967;43.674;6.976;2024-03-23T05:54:37;8.73;;;6.30;;
83094;SDS011;72967;43.674;6.976;2024-03-23T05:57:03;10.32;;;7.00;;
83094;SDS011;72967;43.674;6.976;2024-03-23T05:59:29;9.82;;;6.30;;
83094;SDS011;72967;43.674;6.976;2024-03-23T06:01:54;10.98;;;6.78;;
83094;SDS011;72967;43.674;6.976;2024-03-23T06:04:20;8.88;;;6.28;;
83094;SDS011;72967;43.674;6.976;2024-03-23T06:06:46;10.50;;;6.75;;
83094;SDS011;72967;43.674;6.976;2024-03-23T06:09:11;9.55;;;7.32;;
83094;SDS011;72967;43.674;6.976;2024-03-23T06:11:37;11.60;;;6.55;;
83094;SDS011;72967;43.674;6.976;2024-03-23T06:14:03;8.88;;;6.18;;
83094;SDS011;72967;43.674;6.976;2024-03-23T06:16:28;9.52;;;6.60;;
83094;SDS011;72967;43.674;6.976;2024-03-23T06:18:55;8.48;;;6.20;;
83094;SDS011;72967;43.674;6.976;2024-03-23T06:21:21;11.85;;;6.82;;
83094;SDS011;72967;43.674;6.976;2024-03-23T06:23:50;8.52;;;6.25;;
83094;SDS011;72967;43.674;6.976;2024-03-23T06:26:20;11.23;;;7.53;;
83094;SDS011;72967;43.674;6.976;2024-03-23T06:28:46;9.32;;;6.68;;
83094;SDS011;72967;43.674;6.976;2024-03-23T06:31:12;9.95;;;5.90;;
83094;SDS011;72967;43.674;6.976;2024-03-23T06:33:37;8.40;;;6.28;;
83094;SDS011;72967;43.674;6.976;2024-03-23T06:36:07;9.23;;;5.90;;
83094;SDS011;72967;43.674;6.976;2024-03-23T06:38:35;9.52;;;5.60;;
83094;SDS011;72967;43.674;6.976;2024-03-23T06:41:03;8.70;;;6.20;;
83094;SDS011;72967;43.674;6.976;2024-03-23T06:43:30;9.40;;;5.82;;
83094;SDS011;72967;43.674;6.976;2024-03-23T06:45:55;10.13;;;6.78;;
83094;SDS011;72967;43.674;6.976;2024-03-23T06:48:21;13.25;;;7.70;;
83094;SDS011;72967;43.674;6.976;2024-03-23T06:50:47;9.98;;;6.70;;
83094;SDS011;72967;43.674;6.976;2024-03-23T06:53:13;11.02;;;6.38;;
83094;SDS011;72967;43.674;6.976;2024-03-23T06:55:39;10.95;;;6.20;;
83094;SDS011;72967;43.674;6.976;2024-03-23T06:58:05;10.57;;;7.28;;
83094;SDS011;72967;43.674;6.976;2024-03-23T07:00:31;7.63;;;6.45;;
83094;SDS011;72967;43.674;6.976;2024-03-23T07:02:57;9.45;;;5.63;;
83094;SDS011;72967;43.674;6.976;2024-03-23T07:05:23;8.27;;;5.72;;
83094;SDS011;72967;43.674;6.976;2024-03-23T07:07:48;7.97;;;5.80;;
83094;SDS011;72967;43.674;6.976;2024-03-23T07:10:13;10.63;;;6.32;;
83094;SDS011;72967;43.674;6.976;2024-03-23T07:12:39;9.80;;;5.95;;
83094;SDS011;72967;43.674;6.976;2024-03-23T07:15:04;10.70;;;5.88;;
83094;SDS011;72967;43.674;6.976;2024-03-23T07:17:30;7.80;;;5.55;;
83094;SDS011;72967;43.674;6.976;2024-03-23T07:19:57;6.40;;;5.43;;
83094;SDS011;72967;43.674;6.976;2024-03-23T07:22:23;8.75;;;6.18;;
83094;SDS011;72967;43.674;6.976;2024-03-23T07:24:49;10.15;;;6.60;;
83094;SDS011;72967;43.674;6.976;2024-03-23T07:27:14;8.18;;;6.90;;
83094;SDS011;72967;43.674;6.976;2024-03-23T07:29:40;8.90;;;6.57;;
83094;SDS011;72967;43.674;6.976;2024-03-23T07:32:05;9.77;;;6.25;;
83094;SDS011;72967;43.674;6.976;2024-03-23T07:34:30;8.93;;;6.28;;
83094;SDS011;72967;43.674;6.976;2024-03-23T07:36:56;8.68;;;6.07;;
83094;SDS011;72967;43.674;6.976;2024-03-23T07:39:21;11.93;;;8.05;;
83094;SDS011;72967;43.674;6.976;2024-03-23T07:41:47;11.93;;;7.97;;
83094;SDS011;72967;43.674;6.976;2024-03-23T07:44:12;7.63;;;6.57;;
83094;SDS011;72967;43.674;6.976;2024-03-23T07:46:38;7.28;;;5.30;;
83094;SDS011;72967;43.674;6.976;2024-03-23T07:49:06;7.95;;;5.70;;
83094;SDS011;72967;43.674;6.976;2024-03-23T07:51:31;8.38;;;6.10;;
83094;SDS011;72967;43.674;6.976;2024-03-23T07:53:57;8.63;;;5.43;;
83094;SDS011;72967;43.674;6.976;2024-03-23T07:56:23;10.50;;;5.15;;
83094;SDS011;72967;43.674;6.976;2024-03-23T07:58:49;7.28;;;5.10;;
83094;SDS011;72967;43.674;6.976;2024-03-23T08:01:15;9.25;;;5.32;;
83094;SDS011;72967;43.674;6.976;2024-03-23T08:03:42;13.63;;;7.65;;
83094;SDS011;72967;43.674;6.976;2024-03-23T08:08:35;8.57;;;4.60;;
83094;SDS011;72967;43.674;6.976;2024-03-23T08:11:01;10.88;;;5.35;;
83094;SDS011;72967;43.674;6.976;2024-03-23T08:13:28;7.75;;;5.53;;
83094;SDS011;72967;43.674;6.976;2024-03-23T08:15:57;7.95;;;5.35;;
83094;SDS011;72967;43.674;6.976;2024-03-23T08:18:23;8.00;;;5.32;;
83094;SDS011;72967;43.674;6.976;2024-03-23T08:20:58;7.55;;;4.80;;
83094;SDS011;72967;43.674;6.976;2024-03-23T08:23:25;7.25;;;5.13;;
83094;SDS011;72967;43.674;6.976;2024-03-23T08:25:52;7.72;;;4.15;;
83094;SDS011;72967;43.674;6.976;2024-03-23T08:28:17;8.95;;;4.82;;
83094;SDS011;72967;43.674;6.976;2024-03-23T08:30:43;7.28;;;5.07;;
83094;SDS011;72967;43.674;6.976;2024-03-23T08:33:08;7.10;;;4.57;;
83094;SDS011;72967;43.674;6.976;2024-03-23T08:35:34;7.43;;;4.50;;
83094;SDS011;72967;43.674;6.976;2024-03-23T08:37:59;5.70;;;4.40;;
83094;SDS011;72967;43.674;6.976;2024-03-23T08:40:25;7.45;;;4.50;;
83094;SDS011;72967;43.674;6.976;2024-03-23T08:42:50;8.60;;;4.38;;
83094;SDS011;72967;43.674;6.976;2024-03-23T08:45:16;5.63;;;3.97;;
83094;SDS011;72967;43.674;6.976;2024-03-23T08:47:41;6.82;;;4.32;;
83094;SDS011;72967;43.674;6.976;2024-03-23T08:50:07;9.73;;;4.50;;
83094;SDS011;72967;43.674;6.976;2024-03-23T08:52:33;9.52;;;5.75;;
83094;SDS011;72967;43.674;6.976;2024-03-23T08:54:58;9.40;;;6.15;;
83094;SDS011;72967;43.674;6.976;2024-03-23T08:57:23;10.38;;;5.97;;
83094;SDS011;72967;43.674;6.976;2024-03-23T08:59:49;10.00;;;5.57;;
83094;SDS011;72967;43.674;6.976;2024-03-23T09:02:15;10.88;;;6.50;;
83094;SDS011;72967;43.674;6.976;2024-03-23T09:04:40;10.70;;;5.85;;
83094;SDS011;72967;43.674;6.976;2024-03-23T09:07:06;5.65;;;4.35;;
83094;SDS011;72967;43.674;6.976;2024-03-23T09:09:31;7.45;;;4.70;;
83094;SDS011;72967;43.674;6.976;2024-03-23T09:11:56;6.82;;;4.45;;
83094;SDS011;72967;43.674;6.976;2024-03-23T09:14:22;8.32;;;5.20;;
83094;SDS011;72967;43.674;6.976;2024-03-23T09:16:50;8.75;;;4.90;;
83094;SDS011;72967;43.674;6.976;2024-03-23T09:19:17;9.18;;;5.13;;
83094;SDS011;72967;43.674;6.976;2024-03-23T09:21:42;6.53;;;4.22;;
83094;SDS011;72967;43.674;6.976;2024-03-23T09:24:08;6.85;;;4.80;;
83094;SDS011;72967;43.674;6.976;2024-03-23T09:26:33;6.90;;;4.50;;
83094;SDS011;72967;43.674;6.976;2024-03-23T09:28:59;7.07;;;4.78;;
83094;SDS011;72967;43.674;6.976;2024-03-23T09:31:24;6.53;;;4.45;;
83094;SDS011;72967;43.674;6.976;2024-03-23T09:33:50;6.32;;;4.80;;
83094;SDS011;72967;43.674;6.976;2024-03-23T09:36:15;7.07;;;5.20;;
83094;SDS011;72967;43.674;6.976;2024-03-23T09:38:41;10.23;;;5.65;;
83094;SDS011;72967;43.674;6.976;2024-03-23T09:41:07;6.80;;;4.47;;
83094;SDS011;72967;43.674;6.976;2024-03-23T09:43:33;6.47;;;4.60;;
83094;SDS011;72967;43.674;6.976;2024-03-23T09:45:59;7.35;;;5.05;;
83094;SDS011;72967;43.674;6.976;2024-03-23T09:48:24;6.72;;;4.18;;
83094;SDS011;72967;43.674;6.976;2024-03-23T09:50:50;6.80;;;4.03;;
83094;SDS011;72967;43.674;6.976;2024-03-23T09:53:15;8.32;;;3.78;;
83094;SDS011;72967;43.674;6.976;2024-03-23T09:55:41;5.03;;;3.78;;
83094;SDS011;72967;43.674;6.976;2024-03-23T09:58:11;5.32;;;4.57;;
83094;SDS011;72967;43.674;6.976;2024-03-23T10:00:37;6.82;;;4.40;;
83094;SDS011;72967;43.674;6.976;2024-03-23T10:03:03;7.50;;;4.25;;
83094;SDS011;72967;43.674;6.976;2024-03-23T10:05:31;7.28;;;3.55;;
83094;SDS011;72967;43.674;6.976;2024-03-23T10:07:59;7.63;;;4.10;;
83094;SDS011;72967;43.674;6.976;2024-03-23T10:10:42;9.23;;;3.75;;
83094;SDS011;72967;43.674;6.976;2024-03-23T10:13:07;7.50;;;3.90;;
83094;SDS011;72967;43.674;6.976;2024-03-23T10:15:34;6.85;;;3.50;;
83094;SDS011;72967;43.674;6.976;2024-03-23T10:20:47;8.82;;;3.25;;
83094;SDS011;72967;43.674;6.976;2024-03-23T10:23:16;7.53;;;5.22;;
83094;SDS011;72967;43.674;6.976;2024-03-23T10:25:42;4.78;;;3.58;;
83094;SDS011;72967;43.674;6.976;2024-03-23T10:28:08;7.55;;;3.45;;
83094;SDS011;72967;43.674;6.976;2024-03-23T10:30:34;8.05;;;3.80;;
83094;SDS011;72967;43.674;6.976;2024-03-23T10:33:12;5.18;;;3.63;;
83094;SDS011;72967;43.674;6.976;2024-03-23T10:35:38;6.22;;;3.47;;
83094;SDS011;72967;43.674;6.976;2024-03-23T10:38:04;7.75;;;4.28;;
83094;SDS011;72967;43.674;6.976;2024-03-23T10:40:31;6.93;;;3.92;;
83094;SDS011;72967;43.674;6.976;2024-03-23T10:43:05;6.68;;;4.20;;
83094;SDS011;72967;43.674;6.976;2024-03-23T10:45:33;6.57;;;3.67;;
83094;SDS011;72967;43.674;6.976;2024-03-23T10:47:58;6.38;;;3.67;;
83094;SDS011;72967;43.674;6.976;2024-03-23T10:50:24;7.72;;;3.63;;
83094;SDS011;72967;43.674;6.976;2024-03-23T10:52:49;9.45;;;3.60;;
83094;SDS011;72967;43.674;6.976;2024-03-23T10:55:18;5.55;;;3.47;;
83094;SDS011;72967;43.674;6.976;2024-03-23T10:57:50;6.63;;;4.20;;
83094;SDS011;72967;43.674;6.976;2024-03-23T11:00:19;8.27;;;4.03;;
83094;SDS011;72967;43.674;6.976;2024-03-23T11:02:46;6.82;;;4.40;;
83094;SDS011;72967;43.674;6.976;2024-03-23T11:05:28;9.02;;;3.97;;
83094;SDS011;72967;43.674;6.976;2024-03-23T11:10:27;15.45;;;8.75;;
83094;SDS011;72967;43.674;6.976;2024-03-23T11:12:57;21.98;;;15.88;;
83094;SDS011;72967;43.674;6.976;2024-03-23T11:15:23;16.10;;;9.80;;
83094;SDS011;72967;43.674;6.976;2024-03-23T11:18:02;10.57;;;7.95;;
83094;SDS011;72967;43.674;6.976;2024-03-23T11:20:32;12.32;;;8.20;;
83094;SDS011;72967;43.674;6.976;2024-03-23T11:22:58;7.20;;;5.05;;
83094;SDS011;72967;43.674;6.976;2024-03-23T11:25:25;1.48;;;1.10;;
83094;SDS011;72967;43.674;6.976;2024-03-23T11:27:52;3.25;;;1.50;;
83094;SDS011;72967;43.674;6.976;2024-03-23T11:30:37;4.85;;;1.48;;
83094;SDS011;72967;43.674;6.976;2024-03-23T11:33:05;2.00;;;1.05;;
83094;SDS011;72967;43.674;6.976;2024-03-23T11:35:34;1.98;;;1.40;;
83094;SDS011;72967;43.674;6.976;2024-03-23T11:40:34;2.92;;;2.10;;
83094;SDS011;72967;43.674;6.976;2024-03-23T11:43:02;4.70;;;1.80;;
83094;SDS011;72967;43.674;6.976;2024-03-23T11:45:29;4.63;;;1.63;;
83094;SDS011;72967;43.674;6.976;2024-03-23T11:48:14;3.75;;;1.58;;
83094;SDS011;72967;43.674;6.976;2024-03-23T11:50:56;1.50;;;1.15;;
83094;SDS011;72967;43.674;6.976;2024-03-23T11:53:25;1.55;;;1.00;;
83094;SDS011;72967;43.674;6.976;2024-03-23T11:55:57;3.47;;;1.20;;
83094;SDS011;72967;43.674;6.976;2024-03-23T11:58:24;2.30;;;1.02;;
83094;SDS011;72967;43.674;6.976;2024-03-23T12:03:24;2.50;;;0.90;;
83094;SDS011;72967;43.674;6.976;2024-03-23T12:05:54;3.05;;;1.10;;
83094;SDS011;72967;43.674;6.976;2024-03-23T12:08:30;2.38;;;1.10;;
83094;SDS011;72967;43.674;6.976;2024-03-23T12:13:32;2.97;;;1.20;;
83094;SDS011;72967;43.674;6.976;2024-03-23T12:18:40;3.55;;;1.02;;
83094;SDS011;72967;43.674;6.976;2024-03-23T12:21:08;2.13;;;1.30;;
83094;SDS011;72967;43.674;6.976;2024-03-23T12:23:33;1.88;;;1.00;;
83094;SDS011;72967;43.674;6.976;2024-03-23T12:26:00;4.05;;;1.08;;
83094;SDS011;72967;43.674;6.976;2024-03-23T12:28:26;1.88;;;1.00;;
83094;SDS011;72967;43.674;6.976;2024-03-23T12:30:52;2.50;;;1.00;;
83094;SDS011;72967;43.674;6.976;2024-03-23T12:33:19;1.42;;;1.20;;
83094;SDS011;72967;43.674;6.976;2024-03-23T12:35:44;3.78;;;1.20;;
83094;SDS011;72967;43.674;6.976;2024-03-23T12:38:11;2.80;;;1.08;;
83094;SDS011;72967;43.674;6.976;2024-03-23T12:40:37;2.47;;;0.90;;
83094;SDS011;72967;43.674;6.976;2024-03-23T12:43:02;1.33;;;1.00;;
83094;SDS011;72967;43.674;6.976;2024-03-23T12:45:27;1.42;;;1.10;;
83094;SDS011;72967;43.674;6.976;2024-03-23T12:47:53;1.05;;;0.90;;
83094;SDS011;72967;43.674;6.976;2024-03-23T12:50:19;2.38;;;0.90;;
83094;SDS011;72967;43.674;6.976;2024-03-23T12:52:45;1.70;;;1.00;;
83094;SDS011;72967;43.674;6.976;2024-03-23T12:55:10;1.25;;;0.85;;
83094;SDS011;72967;43.674;6.976;2024-03-23T12:57:35;2.90;;;0.90;;
83094;SDS011;72967;43.674;6.976;2024-03-23T13:00:01;2.17;;;1.00;;
83094;SDS011;72967;43.674;6.976;2024-03-23T13:02:28;1.92;;;1.00;;
83094;SDS011;72967;43.674;6.976;2024-03-23T13:04:53;2.88;;;1.17;;
83094;SDS011;72967;43.674;6.976;2024-03-23T13:07:19;1.55;;;0.98;;
83094;SDS011;72967;43.674;6.976;2024-03-23T13:09:46;3.50;;;1.00;;
83094;SDS011;72967;43.674;6.976;2024-03-23T13:12:12;2.20;;;0.75;;
83094;SDS011;72967;43.674;6.976;2024-03-23T13:14:38;3.20;;;1.27;;
83094;SDS011;72967;43.674;6.976;2024-03-23T13:17:04;1.65;;;0.90;;
83094;SDS011;72967;43.674;6.976;2024-03-23T13:19:30;1.23;;;0.85;;
83094;SDS011;72967;43.674;6.976;2024-03-23T13:21:59;2.50;;;1.42;;
83094;SDS011;72967;43.674;6.976;2024-03-23T13:24:26;0.98;;;0.90;;
83094;SDS011;72967;43.674;6.976;2024-03-23T13:26:53;2.05;;;1.10;;
83094;SDS011;72967;43.674;6.976;2024-03-23T13:29:19;1.10;;;1.00;;
83094;SDS011;72967;43.674;6.976;2024-03-23T13:31:45;1.40;;;1.02;;
83094;SDS011;72967;43.674;6.976;2024-03-23T13:34:11;0.85;;;0.80;;
83094;SDS011;72967;43.674;6.976;2024-03-23T13:36:39;1.70;;;0.85;;
83094;SDS011;72967;43.674;6.976;2024-03-23T13:39:14;1.27;;;0.80;;
83094;SDS011;72967;43.674;6.976;2024-03-23T13:41:41;1.45;;;0.95;;
83094;SDS011;72967;43.674;6.976;2024-03-23T13:44:07;1.40;;;1.00;;
83094;SDS011;72967;43.674;6.976;2024-03-23T13:46:35;1.00;;;0.90;;
83094;SDS011;72967;43.674;6.976;2024-03-23T13:49:01;2.80;;;1.52;;
83094;SDS011;72967;43.674;6.976;2024-03-23T13:51:27;1.90;;;1.10;;
83094;SDS011;72967;43.674;6.976;2024-03-23T13:53:56;1.80;;;0.98;;
83094;SDS011;72967;43.674;6.976;2024-03-23T13:56:24;2.47;;;1.00;;
83094;SDS011;72967;43.674;6.976;2024-03-23T13:58:50;1.85;;;0.90;;
83094;SDS011;72967;43.674;6.976;2024-03-23T14:01:16;1.55;;;0.80;;
83094;SDS011;72967;43.674;6.976;2024-03-23T14:03:42;1.50;;;0.93;;
83094;SDS011;72967;43.674;6.976;2024-03-23T14:06:08;3.05;;;0.82;;
83094;SDS011;72967;43.674;6.976;2024-03-23T14:08:35;7.20;;;1.83;;
83094;SDS011;72967;43.674;6.976;2024-03-23T14:11:03;1.33;;;0.75;;
83094;SDS011;72967;43.674;6.976;2024-03-23T14:13:29;2.17;;;0.80;;
83094;SDS011;72967;43.674;6.976;2024-03-23T14:15:55;1.63;;;0.75;;
83094;SDS011;72967;43.674;6.976;2024-03-23T14:18:20;2.17;;;0.90;;
83094;SDS011;72967;43.674;6.976;2024-03-23T14:20:48;0.80;;;0.80;;
83094;SDS011;72967;43.674;6.976;2024-03-23T14:23:14;1.23;;;0.80;;
83094;SDS011;72967;43.674;6.976;2024-03-23T14:25:39;1.90;;;0.75;;
83094;SDS011;72967;43.674;6.976;2024-03-23T14:28:05;2.25;;;0.82;;
83094;SDS011;72967;43.674;6.976;2024-03-23T14:30:30;1.13;;;0.80;;
83094;SDS011;72967;43.674;6.976;2024-03-23T14:32:56;2.72;;;0.70;;
83094;SDS011;72967;43.674;6.976;2024-03-23T14:35:22;4.13;;;0.90;;
83094;SDS011;72967;43.674;6.976;2024-03-23T14:37:48;1.13;;;0.85;;
83094;SDS011;72967;43.674;6.976;2024-03-23T14:40:14;1.92;;;0.90;;
83094;SDS011;72967;43.674;6.976;2024-03-23T14:42:39;1.33;;;0.70;;
83094;SDS011;72967;43.674;6.976;2024-03-23T14:45:05;2.20;;;0.80;;
83094;SDS011;72967;43.674;6.976;2024-03-23T14:47:32;0.75;;;0.75;;
83094;SDS011;72967;43.674;6.976;2024-03-23T14:49:57;2.05;;;0.70;;
83094;SDS011;72967;43.674;6.976;2024-03-23T14:52:23;0.90;;;0.65;;
83094;SDS011;72967;43.674;6.976;2024-03-23T14:54:49;1.20;;;0.75;;
83094;SDS011;72967;43.674;6.976;2024-03-23T14:57:14;1.92;;;0.73;;
83094;SDS011;72967;43.674;6.976;2024-03-23T14:59:40;2.05;;;0.80;;
83094;SDS011;72967;43.674;6.976;2024-03-23T15:02:08;0.77;;;0.75;;
83094;SDS011;72967;43.674;6.976;2024-03-23T15:04:34;1.25;;;0.75;;
83094;SDS011;72967;43.674;6.976;2024-03-23T15:07:00;1.02;;;0.90;;
83094;SDS011;72967;43.674;6.976;2024-03-23T15:09:26;1.13;;;0.70;;
83094;SDS011;72967;43.674;6.976;2024-03-23T15:11:52;1.05;;;0.75;;
83094;SDS011;72967;43.674;6.976;2024-03-23T15:14:19;1.42;;;0.70;;
83094;SDS011;72967;43.674;6.976;2024-03-23T15:16:45;1.10;;;0.65;;
83094;SDS011;72967;43.674;6.976;2024-03-23T15:19:13;1.05;;;0.60;;
83094;SDS011;72967;43.674;6.976;2024-03-23T15:21:39;1.60;;;0.70;;
83094;SDS011;72967;43.674;6.976;2024-03-23T15:24:05;1.17;;;1.05;;
83094;SDS011;72967;43.674;6.976;2024-03-23T15:26:32;0.93;;;0.60;;
83094;SDS011;72967;43.674;6.976;2024-03-23T15:28:57;0.75;;;0.63;;
83094;SDS011;72967;43.674;6.976;2024-03-23T15:31:23;1.20;;;0.63;;
83094;SDS011;72967;43.674;6.976;2024-03-23T15:33:49;1.27;;;0.80;;
83094;SDS011;72967;43.674;6.976;2024-03-23T15:36:15;1.55;;;0.90;;
83094;SDS011;72967;43.674;6.976;2024-03-23T15:38:40;1.48;;;1.25;;
83094;SDS011;72967;43.674;6.976;2024-03-23T15:41:07;2.58;;;1.08;;
83094;SDS011;72967;43.674;6.976;2024-03-23T15:43:33;2.10;;;1.00;;
83094;SDS011;72967;43.674;6.976;2024-03-23T15:46:03;0.70;;;0.68;;
83094;SDS011;72967;43.674;6.976;2024-03-23T15:48:30;1.63;;;0.85;;